createdAt,value
2024-01-15T00:00:36.019Z,71.44
2024-01-15T00:03:03.924Z,71.31
2024-01-15T00:05:30.993Z,69.32
2024-01-15T00:07:58.035Z,70.03
2024-01-15T00:10:25.188Z,70.78
2024-01-15T00:12:52.202Z,71.34
2024-01-15T00:15:19.223Z,70.52
2024-01-15T00:17:47.264Z,70.15
2024-01-15T00:20:14.357Z,70.86
2024-01-15T00:22:41.368Z,70.35
2024-01-15T00:26:35.828Z,70.19
2024-01-15T00:29:33.770Z,69.79
2024-01-15T00:32:00.719Z,70.18
2024-01-15T00:34:27.752Z,71.49
2024-01-15T00:36:55.418Z,70.82
2024-01-15T00:39:22.361Z,70.04
2024-01-15T00:41:49.366Z,68.90
2024-01-15T00:44:16.387Z,68.86
2024-01-15T00:46:47.306Z,69.34
2024-01-15T00:49:15.033Z,68.96
2024-01-15T00:51:42.457Z,68.77
2024-01-15T00:54:09.838Z,69.39
2024-01-15T00:56:38.263Z,70.48
2024-01-15T00:59:05.147Z,69.04
2024-01-15T01:01:32.777Z,69.50
2024-01-15T01:03:59.864Z,71.43
2024-01-15T01:06:26.933Z,69.51
2024-01-15T01:08:53.825Z,69.65
2024-01-15T01:11:20.810Z,70.21
2024-01-15T01:13:47.734Z,69.13
2024-01-15T01:16:14.575Z,69.70
2024-01-15T01:18:41.624Z,69.94
2024-01-15T01:21:08.632Z,70.09
2024-01-15T01:23:35.614Z,69.36
2024-01-15T01:26:02.572Z,70.11
2024-01-15T01:28:29.622Z,69.56
2024-01-15T01:30:56.687Z,68.12
2024-01-15T01:33:23.751Z,68.20
2024-01-15T01:35:50.799Z,70.07
2024-01-15T01:38:17.814Z,69.75
2024-01-15T01:40:44.756Z,69.56
2024-01-15T01:43:11.756Z,68.62
2024-01-15T01:45:39.867Z,67.63
2024-01-15T01:48:07.676Z,68.35
2024-01-15T01:50:34.885Z,67.90
2024-01-15T01:53:05.482Z,67.98
2024-01-15T01:55:34.693Z,68.48
2024-01-15T01:58:03.182Z,68.27
2024-01-15T02:00:32.430Z,68.98
2024-01-15T02:02:59.622Z,67.21
2024-01-15T02:05:28.045Z,66.38
2024-01-15T02:07:55.235Z,66.58
2024-01-15T02:10:22.214Z,66.61
2024-01-15T02:12:49.840Z,67.72
2024-01-15T02:15:17.123Z,67.75
2024-01-15T02:18:08.340Z,67.66
2024-01-15T02:20:35.845Z,66.86
2024-01-15T02:23:16.681Z,67.31
2024-01-15T02:25:48.357Z,66.91
2024-01-15T02:28:18.462Z,67.07
2024-01-15T02:30:46.262Z,67.03
2024-01-15T02:33:14.166Z,65.74
2024-01-15T02:35:41.743Z,65.99
2024-01-15T02:38:09.300Z,65.95
2024-01-15T02:40:36.923Z,65.13
2024-01-15T02:43:04.209Z,64.48
2024-01-15T02:45:31.752Z,64.40
2024-01-15T02:47:58.760Z,63.25
2024-01-15T02:50:25.762Z,64.17
2024-01-15T02:52:53.421Z,65.35
2024-01-15T02:55:20.386Z,64.99
2024-01-15T02:57:47.582Z,65.51
2024-01-15T03:00:15.323Z,64.21
2024-01-15T03:02:48.652Z,65.06
2024-01-15T03:05:16.386Z,64.27
2024-01-15T03:07:44.280Z,66.81
2024-01-15T03:10:11.264Z,66.24
2024-01-15T03:12:38.425Z,65.89
2024-01-15T03:15:06.496Z,66.38
2024-01-15T03:17:33.684Z,66.29
2024-01-15T03:20:00.920Z,66.78
2024-01-15T03:22:27.938Z,68.01
2024-01-15T03:24:55.009Z,68.69
2024-01-15T03:27:21.899Z,67.24
2024-01-15T03:29:48.862Z,66.51
2024-01-15T03:32:17.422Z,68.15
2024-01-15T03:34:44.696Z,66.78
2024-01-15T03:37:11.698Z,67.64
2024-01-15T03:39:38.698Z,67.48
2024-01-15T03:42:06.126Z,68.18
2024-01-15T03:44:33.068Z,67.71
2024-01-15T03:47:00.186Z,68.45
2024-01-15T03:49:27.220Z,68.81
2024-01-15T03:51:54.259Z,68.95
2024-01-15T03:54:21.397Z,68.59
2024-01-15T03:56:48.580Z,68.32
2024-01-15T03:59:15.727Z,67.65
2024-01-15T04:01:42.688Z,65.79
2024-01-15T04:04:09.633Z,69.99
2024-01-15T04:06:36.759Z,69.20
2024-01-15T04:09:04.014Z,69.94
2024-01-15T04:11:31.038Z,70.62
2024-01-15T04:13:57.918Z,69.65
2024-01-15T04:16:24.934Z,68.69
2024-01-15T04:18:52.047Z,71.25
2024-01-15T04:21:19.848Z,72.57
2024-01-15T04:23:46.929Z,71.10
2024-01-15T04:26:13.951Z,70.46
2024-01-15T04:28:41.582Z,70.76
2024-01-15T04:31:08.775Z,70.25
2024-01-15T04:33:36.080Z,70.36
2024-01-15T04:36:05.215Z,69.63
2024-01-15T04:38:33.594Z,70.23
2024-01-15T04:41:00.561Z,70.37
2024-01-15T04:43:27.437Z,69.04
2024-01-15T04:45:54.332Z,70.38
2024-01-15T04:48:21.382Z,68.52
2024-01-15T04:50:49.150Z,68.68
2024-01-15T04:53:16.052Z,67.69
2024-01-15T04:55:44.079Z,70.34
2024-01-15T04:58:10.983Z,69.78
2024-01-15T05:00:37.885Z,71.34
2024-01-15T05:03:05.520Z,72.15
2024-01-15T05:05:32.453Z,71.81
2024-01-15T05:07:59.353Z,70.56
2024-01-15T05:10:26.559Z,71.20
2024-01-15T05:12:53.655Z,71.59
2024-01-15T05:15:21.044Z,74.44
2024-01-15T05:17:48.202Z,74.79
2024-01-15T05:20:15.842Z,74.61
2024-01-15T05:22:42.850Z,74.89
2024-01-15T05:25:09.702Z,73.98
2024-01-15T05:27:36.617Z,72.68
2024-01-15T05:30:05.053Z,74.57
2024-01-15T05:32:32.678Z,75.23
2024-01-15T05:34:59.678Z,75.25
2024-01-15T05:37:26.890Z,74.06
2024-01-15T05:39:53.904Z,75.36
2024-01-15T05:42:20.941Z,76.97
2024-01-15T05:44:47.860Z,75.62
2024-01-15T05:47:14.787Z,77.49
2024-01-15T05:49:42.018Z,76.10
2024-01-15T05:52:09.020Z,77.10
2024-01-15T05:54:36.103Z,78.71
2024-01-15T05:57:06.831Z,79.46
2024-01-15T05:59:37.479Z,79.61
2024-01-15T06:02:05.169Z,76.19
2024-01-15T06:04:32.254Z,77.59
2024-01-15T06:06:59.423Z,78.88
2024-01-15T06:09:26.475Z,77.11
2024-01-15T06:11:53.426Z,78.12
2024-01-15T06:14:20.337Z,78.84
2024-01-15T06:16:47.386Z,78.95
2024-01-15T06:19:14.343Z,78.98
2024-01-15T06:21:41.413Z,76.91
2024-01-15T06:24:08.330Z,79.21
2024-01-15T06:26:35.434Z,78.04
2024-01-15T06:29:04.184Z,77.30
2024-01-15T06:31:31.432Z,79.32
2024-01-15T06:33:58.684Z,78.88
2024-01-15T06:36:25.842Z,77.49
2024-01-15T06:38:52.833Z,77.27
2024-01-15T06:41:19.830Z,77.44
2024-01-15T06:43:46.726Z,78.24
2024-01-15T06:46:23.614Z,77.07
2024-01-15T06:48:52.878Z,77.50
2024-01-15T06:51:19.936Z,80.09
2024-01-15T06:53:46.977Z,79.87
2024-01-15T06:56:14.043Z,77.43
2024-01-15T06:58:41.142Z,88.92
2024-01-15T07:01:10.066Z,84.91
2024-01-15T07:03:37.077Z,77.65
2024-01-15T07:06:04.628Z,78.37
2024-01-15T07:08:31.583Z,87.60
2024-01-15T07:10:58.587Z,79.30
2024-01-15T07:13:25.692Z,78.13
2024-01-15T07:15:52.913Z,89.84
2024-01-15T07:18:20.035Z,80.10
2024-01-15T07:20:47.101Z,78.14
2024-01-15T07:23:14.083Z,77.88
2024-01-15T07:25:41.001Z,81.31
2024-01-15T07:28:07.996Z,80.01
2024-01-15T07:30:35.002Z,79.62
2024-01-15T07:33:02.229Z,80.59
2024-01-15T07:35:29.359Z,80.48
2024-01-15T07:37:56.282Z,80.68
2024-01-15T07:40:23.256Z,81.53
2024-01-15T07:42:50.342Z,80.56
2024-01-15T07:45:17.539Z,80.80
2024-01-15T07:47:45.708Z,81.98
2024-01-15T07:50:12.967Z,79.95
2024-01-15T07:52:45.166Z,81.93
2024-01-15T07:55:12.199Z,80.58
2024-01-15T07:57:39.229Z,78.85
2024-01-15T08:00:07.304Z,78.62
2024-01-15T08:02:37.118Z,78.84
2024-01-15T08:05:05.046Z,78.17
2024-01-15T08:07:32.125Z,77.98
2024-01-15T08:09:59.706Z,77.53
2024-01-15T08:12:26.859Z,77.99
2024-01-15T08:14:53.955Z,78.86
2024-01-15T08:17:21.004Z,79.22
2024-01-15T08:19:48.326Z,79.43
2024-01-15T08:22:15.421Z,79.21
2024-01-15T08:24:42.422Z,78.08
2024-01-15T08:27:09.976Z,78.11
2024-01-15T08:29:36.892Z,77.97
2024-01-15T08:32:04.192Z,78.54
2024-01-15T08:34:32.514Z,80.30
2024-01-15T08:36:59.586Z,79.32
2024-01-15T08:39:26.484Z,76.83
2024-01-15T08:41:53.415Z,77.25
2024-01-15T08:44:20.448Z,77.38
2024-01-15T08:46:47.380Z,80.65
2024-01-15T08:49:14.334Z,80.57
2024-01-15T08:51:41.434Z,80.63
2024-01-15T08:54:09.727Z,81.04
2024-01-15T08:56:36.787Z,82.28
2024-01-15T08:59:03.734Z,82.01
2024-01-15T09:01:31.138Z,81.93
2024-01-15T09:03:58.235Z,82.52
2024-01-15T09:06:25.340Z,82.19
2024-01-15T09:08:52.323Z,83.09
2024-01-15T09:11:19.223Z,82.52
2024-01-15T09:13:46.157Z,86.87
2024-01-15T09:16:13.181Z,85.50
2024-01-15T09:18:40.344Z,86.31
2024-01-15T09:21:09.458Z,85.99
2024-01-15T09:23:36.962Z,89.24
2024-01-15T09:26:03.962Z,88.83
2024-01-15T09:28:30.994Z,89.31
2024-01-15T09:30:58.003Z,90.59
2024-01-15T09:33:25.094Z,87.36
2024-01-15T09:35:52.106Z,87.00
2024-01-15T09:38:20.349Z,85.54
2024-01-15T09:40:48.208Z,84.40
2024-01-15T09:43:17.040Z,82.72
2024-01-15T09:45:45.265Z,83.13
2024-01-15T09:48:13.918Z,80.84
2024-01-15T09:50:41.057Z,81.73
2024-01-15T09:53:08.054Z,81.42
2024-01-15T09:55:35.308Z,83.52
2024-01-15T09:58:04.093Z,84.93
2024-01-15T10:00:34.284Z,85.90
2024-01-15T10:03:01.493Z,87.15
2024-01-15T10:05:28.906Z,84.75
2024-01-15T10:07:58.738Z,86.22
2024-01-15T10:10:27.584Z,86.40
2024-01-15T10:12:56.443Z,86.76
2024-01-15T10:15:25.076Z,88.26
2024-01-15T10:17:52.178Z,87.37
2024-01-15T10:20:19.466Z,87.98
2024-01-15T10:22:49.866Z,89.17
2024-01-15T10:25:17.409Z,88.84
2024-01-15T10:27:45.015Z,90.05
2024-01-15T10:30:15.265Z,90.73
2024-01-15T10:32:42.438Z,90.28
2024-01-15T10:35:09.771Z,90.14
2024-01-15T10:37:36.748Z,89.51
2024-01-15T10:40:07.766Z,88.47
2024-01-15T10:42:35.033Z,90.63
2024-01-15T10:45:02.363Z,91.25
2024-01-15T10:47:30.721Z,89.97
2024-01-15T10:49:58.292Z,90.22
2024-01-15T10:52:26.127Z,89.46
2024-01-15T10:54:54.445Z,90.11
2024-01-15T10:57:23.672Z,91.52
2024-01-15T10:59:50.600Z,92.36
2024-01-15T11:02:18.329Z,91.51
2024-01-15T11:04:45.584Z,91.01
2024-01-15T11:07:14.749Z,90.66
2024-01-15T11:09:41.683Z,89.18
2024-01-15T11:12:12.996Z,90.06
2024-01-15T11:14:49.507Z,90.35
2024-01-15T11:17:19.030Z,90.53
2024-01-15T11:19:49.424Z,87.90
2024-01-15T11:22:31.670Z,88.00
2024-01-15T11:25:05.595Z,86.07
2024-01-15T11:27:52.723Z,86.28
2024-01-15T11:32:48.715Z,85.15
2024-01-15T11:35:16.275Z,84.96
2024-01-15T11:37:52.642Z,83.32
2024-01-15T11:40:45.689Z,82.68
2024-01-15T11:43:14.602Z,82.88
2024-01-15T11:45:42.506Z,79.10
2024-01-15T11:48:15.861Z,81.77
2024-01-15T11:50:50.674Z,79.45
2024-01-15T11:53:46.662Z,75.40
2024-01-15T11:56:18.887Z,72.36
2024-01-15T11:58:46.345Z,70.15
2024-01-15T12:01:13.691Z,73.61
2024-01-15T12:03:40.742Z,72.03
2024-01-15T12:06:08.710Z,69.55
2024-01-15T12:08:36.500Z,70.97
2024-01-15T12:11:12.390Z,70.95
2024-01-15T12:13:39.416Z,67.72
2024-01-15T12:16:06.636Z,64.41
2024-01-15T12:18:33.809Z,66.76
2024-01-15T12:21:03.297Z,68.40
2024-01-15T12:23:30.906Z,66.75
2024-01-15T12:25:57.878Z,66.50
2024-01-15T12:28:24.860Z,65.18
2024-01-15T12:30:52.321Z,64.70
2024-01-15T12:33:21.527Z,64.86
2024-01-15T12:35:48.641Z,63.61
2024-01-15T12:38:15.589Z,62.74
2024-01-15T12:40:47.948Z,62.42
2024-01-15T12:43:14.968Z,61.74
2024-01-15T12:45:42.380Z,60.45
2024-01-15T12:48:10.287Z,59.54
2024-01-15T12:50:37.240Z,61.06
2024-01-15T12:53:04.392Z,59.64
2024-01-15T12:55:31.327Z,60.10
2024-01-15T12:57:58.329Z,61.18
2024-01-15T13:00:27.725Z,59.22
2024-01-15T13:02:56.130Z,56.48
2024-01-15T13:05:24.913Z,59.57
2024-01-15T13:07:52.287Z,61.71
2024-01-15T13:10:19.129Z,60.22
2024-01-15T13:12:46.261Z,60.65
2024-01-15T13:15:14.400Z,56.61
2024-01-15T13:17:43.653Z,54.87
2024-01-15T13:20:12.775Z,55.99
2024-01-15T13:22:41.677Z,56.70
2024-01-15T13:25:10.253Z,58.48
2024-01-15T13:27:38.736Z,58.68
2024-01-15T13:30:09.252Z,60.52
2024-01-15T13:32:36.855Z,60.52
2024-01-15T13:35:06.782Z,59.74
2024-01-15T13:37:33.890Z,59.98
2024-01-15T13:40:00.848Z,57.95
2024-01-15T13:42:28.732Z,56.48
2024-01-15T13:44:56.214Z,54.59
2024-01-15T13:47:23.617Z,52.78
2024-01-15T13:49:52.695Z,53.64
2024-01-15T13:52:21.217Z,54.40
2024-01-15T13:54:50.479Z,56.17
2024-01-15T13:57:20.462Z,56.27
2024-01-15T13:59:47.714Z,56.15
2024-01-15T14:02:19.081Z,54.57
2024-01-15T14:04:50.049Z,52.93
2024-01-15T14:07:17.493Z,54.28
2024-01-15T14:09:44.579Z,53.63
2024-01-15T14:12:11.651Z,52.99
2024-01-15T14:14:38.506Z,52.96
2024-01-15T14:17:05.524Z,52.58
2024-01-15T14:19:32.671Z,51.77
2024-01-15T14:21:59.718Z,52.66
2024-01-15T14:24:26.692Z,53.34
2024-01-15T14:26:53.595Z,54.79
2024-01-15T14:29:21.940Z,55.76
2024-01-15T14:31:49.024Z,54.01
2024-01-15T14:34:16.686Z,55.67
2024-01-15T14:36:43.768Z,56.13
2024-01-15T14:39:13.446Z,55.52
2024-01-15T14:41:40.559Z,57.59
2024-01-15T14:44:07.660Z,56.85
2024-01-15T14:46:34.541Z,56.68
2024-01-15T14:49:01.481Z,56.54
2024-01-15T14:51:28.469Z,56.60
2024-01-15T14:53:55.917Z,56.41
2024-01-15T14:56:23.413Z,54.72
2024-01-15T14:58:50.754Z,51.56
2024-01-15T15:01:17.982Z,50.83
2024-01-15T15:03:49.160Z,50.98
2024-01-15T15:06:17.731Z,50.67
2024-01-15T15:08:44.665Z,50.95
2024-01-15T15:11:12.689Z,55.06
2024-01-15T15:13:45.503Z,55.05
2024-01-15T15:16:14.900Z,52.10
2024-01-15T15:18:47.353Z,49.23
2024-01-15T15:21:14.650Z,48.22
2024-01-15T15:23:41.629Z,48.52
2024-01-15T15:26:08.564Z,47.67
2024-01-15T15:28:38.579Z,48.02
2024-01-15T15:31:12.395Z,47.48
2024-01-15T15:33:39.514Z,48.81
2024-01-15T15:36:06.825Z,47.07
2024-01-15T15:38:34.330Z,48.14
2024-01-15T15:41:02.310Z,47.89
2024-01-15T15:43:30.520Z,48.00
2024-01-15T15:46:01.206Z,46.85
2024-01-15T15:48:28.768Z,46.10
2024-01-15T15:51:01.017Z,46.87
2024-01-15T15:53:28.076Z,46.35
2024-01-15T15:55:55.024Z,49.80
2024-01-15T15:58:21.924Z,49.82
2024-01-15T16:00:49.185Z,50.54
2024-01-15T16:03:16.735Z,49.65
2024-01-15T16:05:51.825Z,49.71
2024-01-15T16:08:21.243Z,48.83
2024-01-15T16:10:52.892Z,47.81
2024-01-15T16:13:20.573Z,49.85
2024-01-15T16:15:47.799Z,50.46
2024-01-15T16:23:19.724Z,50.79
2024-01-15T16:23:34.627Z,53.12
2024-01-15T16:24:11.431Z,57.23
2024-01-15T16:26:38.333Z,53.20
2024-01-15T16:29:05.609Z,51.14
2024-01-15T16:31:32.700Z,51.46
2024-01-15T16:34:04.901Z,53.45
2024-01-15T16:36:34.052Z,52.74
2024-01-15T16:39:02.582Z,54.51
2024-01-15T16:41:30.645Z,55.05
2024-01-15T16:43:57.828Z,53.65
2024-01-15T16:46:24.834Z,53.48
2024-01-15T16:48:51.992Z,52.87
2024-01-15T16:51:18.981Z,51.99
2024-01-15T16:53:45.975Z,51.92
2024-01-15T16:56:12.888Z,51.80
2024-01-15T16:58:39.912Z,53.61
2024-01-15T17:01:09.986Z,53.08
2024-01-15T17:03:37.169Z,50.36
2024-01-15T17:06:04.274Z,51.60
2024-01-15T17:08:31.740Z,51.79
2024-01-15T17:11:01.381Z,51.06
2024-01-15T17:13:29.608Z,50.31
2024-01-15T17:15:56.637Z,48.77
2024-01-15T17:18:23.604Z,47.86
2024-01-15T17:20:50.549Z,45.55
2024-01-15T17:23:17.571Z,46.27
2024-01-15T17:25:44.544Z,47.75
2024-01-15T17:28:11.508Z,47.89
2024-01-15T17:30:38.427Z,46.59
2024-01-15T17:33:05.753Z,47.05
2024-01-15T17:35:32.922Z,46.69
2024-01-15T17:38:00.816Z,47.36
2024-01-15T17:40:27.834Z,47.71
2024-01-15T17:42:54.680Z,48.53
2024-01-15T17:45:22.081Z,49.05
2024-01-15T17:47:52.646Z,55.10
2024-01-15T17:50:20.152Z,52.32
2024-01-15T17:52:47.231Z,50.51
2024-01-15T17:55:14.471Z,53.51
2024-01-15T17:57:41.816Z,54.35
2024-01-15T18:00:10.204Z,51.77
2024-01-15T18:02:37.449Z,53.30
2024-01-15T18:05:05.500Z,53.46
2024-01-15T18:07:32.607Z,52.29
2024-01-15T18:10:00.011Z,53.64
2024-01-15T18:12:26.908Z,55.15
2024-01-15T18:14:54.798Z,56.30
2024-01-15T18:17:24.897Z,58.83
2024-01-15T18:19:53.199Z,59.04
2024-01-15T18:22:20.556Z,61.16
2024-01-15T18:24:47.484Z,60.35
2024-01-15T18:27:14.585Z,57.11
2024-01-15T18:29:41.654Z,56.57
2024-01-15T18:32:08.757Z,59.33
2024-01-15T18:34:37.218Z,64.06
2024-01-15T18:37:05.300Z,63.83
2024-01-15T18:39:32.241Z,60.37
2024-01-15T18:41:59.227Z,61.44
2024-01-15T18:44:26.202Z,68.81
2024-01-15T18:46:53.205Z,70.34
2024-01-15T18:49:22.125Z,59.70
2024-01-15T18:51:54.333Z,65.29
2024-01-15T18:54:22.504Z,61.09
2024-01-15T18:56:49.611Z,63.29
2024-01-15T18:59:16.773Z,66.14
2024-01-15T19:01:44.928Z,65.94
2024-01-15T19:04:13.449Z,60.29
2024-01-15T19:06:42.042Z,57.26
2024-01-15T19:09:11.447Z,55.53
2024-01-15T19:11:38.871Z,60.59
2024-01-15T19:14:07.050Z,61.55
2024-01-15T19:16:34.109Z,59.13
2024-01-15T19:19:01.106Z,58.14
2024-01-15T19:21:28.049Z,58.54
2024-01-15T19:23:55.081Z,60.68
2024-01-15T19:26:23.262Z,60.42
2024-01-15T19:28:50.311Z,57.78
2024-01-15T19:31:18.285Z,60.26
2024-01-15T19:33:45.326Z,60.24
2024-01-15T19:36:25.838Z,62.04
2024-01-15T19:38:54.132Z,62.51
2024-01-15T19:41:22.152Z,61.47
2024-01-15T19:43:49.335Z,61.79
2024-01-15T19:46:16.933Z,61.22
2024-01-15T19:48:44.071Z,60.34
2024-01-15T19:51:13.716Z,60.02
2024-01-15T19:53:42.389Z,60.91
2024-01-15T19:56:09.901Z,61.32
2024-01-15T19:58:38.326Z,62.42
2024-01-15T20:01:06.241Z,59.15
2024-01-15T20:03:33.352Z,56.32
2024-01-15T20:06:00.604Z,53.05
2024-01-15T20:08:27.738Z,59.10
2024-01-15T20:10:56.960Z,57.89
2024-01-15T20:13:23.945Z,59.21
2024-01-15T20:15:51.189Z,61.27
2024-01-15T20:18:19.088Z,60.70
2024-01-15T20:20:46.353Z,68.67
2024-01-15T20:23:13.473Z,68.13
2024-01-15T20:25:40.486Z,61.08
2024-01-15T20:28:07.867Z,61.36
2024-01-15T20:30:35.037Z,66.70
2024-01-15T20:33:02.423Z,67.12
2024-01-15T20:35:30.042Z,69.19
2024-01-15T20:37:58.520Z,71.19
2024-01-15T20:40:25.869Z,69.84
2024-01-15T20:42:53.151Z,70.92
2024-01-15T20:45:20.191Z,72.71
2024-01-15T20:47:47.194Z,69.74
2024-01-15T20:50:14.470Z,70.95
2024-01-15T20:52:41.535Z,69.45
2024-01-15T20:55:10.203Z,69.52
2024-01-15T20:57:37.476Z,67.70
2024-01-15T21:00:08.325Z,67.03
2024-01-15T21:02:37.818Z,65.06
2024-01-15T21:05:06.499Z,64.39
2024-01-15T21:07:33.657Z,68.29
2024-01-15T21:10:00.841Z,69.64
2024-01-15T21:12:28.045Z,70.41
2024-01-15T21:14:57.109Z,73.14
2024-01-15T21:17:24.741Z,78.34
2024-01-15T21:19:57.173Z,82.08
2024-01-15T21:22:24.567Z,78.35
2024-01-15T21:24:52.098Z,71.82
2024-01-15T21:27:19.199Z,71.83
2024-01-15T21:29:46.711Z,84.72
2024-01-15T21:32:13.771Z,83.34
2024-01-15T21:34:43.739Z,85.17
2024-01-15T21:37:11.004Z,86.89
2024-01-15T21:39:39.393Z,78.43
2024-01-15T21:42:06.576Z,75.96
2024-01-15T21:44:33.941Z,73.87
2024-01-15T21:47:01.273Z,78.55
2024-01-15T21:49:28.595Z,82.67
2024-01-15T21:51:55.772Z,77.91
2024-01-15T21:54:22.900Z,84.45
2024-01-15T21:56:50.073Z,83.66
2024-01-15T21:59:17.411Z,78.41
2024-01-15T22:01:44.566Z,82.35
2024-01-15T22:04:12.521Z,81.00
2024-01-15T22:06:39.895Z,79.54
2024-01-15T22:09:07.322Z,75.87
2024-01-15T22:11:34.486Z,75.59
2024-01-15T22:14:01.581Z,71.96
2024-01-15T22:16:28.649Z,70.92
2024-01-15T22:18:58.659Z,69.85
2024-01-15T22:21:27.337Z,70.33
2024-01-15T22:23:54.209Z,72.14
2024-01-15T22:26:21.257Z,71.15
2024-01-15T22:28:48.328Z,69.89
2024-01-15T22:31:15.238Z,69.55
2024-01-15T22:33:42.313Z,71.95
2024-01-15T22:36:09.426Z,71.68
2024-01-15T22:38:36.372Z,69.21
2024-01-15T22:41:03.857Z,66.82
2024-01-15T22:43:30.931Z,70.93
2024-01-15T22:45:57.880Z,73.25
2024-01-15T22:48:25.799Z,70.69
2024-01-15T22:50:52.819Z,72.93
2024-01-15T22:53:19.746Z,71.19
2024-01-15T22:55:46.761Z,71.31
2024-01-15T22:58:13.699Z,74.08
2024-01-15T23:00:44.912Z,73.84
2024-01-15T23:03:12.736Z,71.77
2024-01-15T23:05:40.179Z,69.22
2024-01-15T23:08:07.294Z,70.22
2024-01-15T23:10:34.246Z,72.21
2024-01-15T23:13:01.133Z,73.92
2024-01-15T23:15:29.719Z,74.12
2024-01-15T23:18:02.827Z,72.66
2024-01-15T23:20:29.904Z,71.70
2024-01-15T23:22:57.108Z,71.91
2024-01-15T23:25:24.055Z,67.93
2024-01-15T23:27:51.080Z,68.19
2024-01-15T23:30:18.291Z,69.01
2024-01-15T23:32:45.353Z,69.97
2024-01-15T23:35:13.109Z,70.35
2024-01-15T23:37:40.864Z,70.03
2024-01-15T23:40:09.340Z,70.77
2024-01-15T23:42:36.475Z,69.77
2024-01-15T23:45:03.786Z,69.26
2024-01-15T23:47:30.846Z,66.89
2024-01-15T23:49:57.877Z,68.18
2024-01-15T23:52:24.843Z,67.15
2024-01-15T23:54:52.364Z,69.31
2024-01-15T23:57:19.286Z,71.22
2024-01-15T23:59:46.227Z,70.09
